Warlock, Texas
Current Conditions -  °F | °C
As of 7:35 PM on Friday 24 Oct 2014 (Local Time) from KOSA Reporting Station
Clear Clear  
Wind Chill: 68°   Ceiling: Unl
Heat Index: 68°   Visibility: 10mi
Dew Point: 61°   Wind: 5mph
Humidity: 79%   Direction: 140°SE
Pressure: 30.11"   Gusts: NA
Location:  32.8757°N, 94.5777°W
Report Text: KOSA 250035Z AUTO 14004KT 10SM CLR 20/16 A3011 RMK AO1 T01990161
Loading
Personal Weather Stations






























Interactive Weather Map
Tropical Storm Tracking
New forecast layout! Learn more

10-Day Weather Forecast

Advertisements
Track Severe Weather on mobile